createdAt,value
2018-10-19T00:01:37.597Z,13.40
2018-10-19T00:04:05.349Z,13.30
2018-10-19T00:06:33.053Z,13.30
2018-10-19T00:09:00.775Z,13.30
2018-10-19T00:11:28.483Z,13.40
2018-10-19T00:13:56.177Z,13.20
2018-10-19T00:16:23.885Z,13.30
2018-10-19T00:18:51.907Z,13.20
2018-10-19T00:21:19.645Z,13.30
2018-10-19T00:23:47.366Z,13.20
2018-10-19T00:26:15.103Z,13.30
2018-10-19T00:28:42.801Z,13.20
2018-10-19T00:31:10.521Z,13.30
2018-10-19T00:33:38.263Z,13.30
2018-10-19T00:36:06.025Z,13.20
2018-10-19T00:38:33.724Z,13.20
2018-10-19T00:41:01.509Z,13.30
2018-10-19T00:43:29.173Z,13.30
2018-10-19T00:45:56.905Z,13.30
2018-10-19T00:48:24.596Z,13.00
2018-10-19T00:50:52.295Z,13.00
2018-10-19T00:53:20.020Z,13.40
2018-10-19T00:55:47.705Z,13.30
2018-10-19T00:58:15.453Z,13.30
2018-10-19T01:00:43.166Z,13.30
2018-10-19T01:03:11.072Z,12.90
2018-10-19T01:05:39.645Z,12.70
2018-10-19T01:08:08.074Z,12.80
2018-10-19T01:10:35.765Z,12.70
2018-10-19T01:13:03.761Z,12.80
2018-10-19T01:15:31.504Z,12.70
2018-10-19T01:17:59.598Z,12.80
2018-10-19T01:20:27.306Z,12.90
2018-10-19T01:22:55.115Z,12.90
2018-10-19T01:25:22.861Z,12.90
2018-10-19T01:27:50.857Z,13.00
2018-10-19T01:30:18.650Z,12.90
2018-10-19T01:32:46.422Z,12.70
2018-10-19T01:35:14.184Z,12.80
2018-10-19T01:37:41.918Z,13.00
2018-10-19T01:40:10.802Z,12.70
2018-10-19T01:42:38.985Z,12.70
2018-10-19T01:45:08.273Z,12.80
2018-10-19T01:47:35.940Z,13.20
2018-10-19T01:50:04.079Z,12.80
2018-10-19T01:52:31.812Z,12.90
2018-10-19T01:54:59.514Z,13.30
2018-10-19T01:57:27.250Z,13.40
2018-10-19T01:59:54.985Z,13.30
2018-10-19T02:02:22.683Z,13.20
2018-10-19T02:04:50.436Z,13.00
2018-10-19T02:07:18.129Z,12.90
2018-10-19T02:09:45.843Z,13.10
2018-10-19T02:12:13.577Z,13.30
2018-10-19T02:14:41.261Z,13.00
2018-10-19T02:17:09.092Z,13.00
2018-10-19T02:19:37.084Z,13.00
2018-10-19T02:22:05.280Z,12.90
2018-10-19T02:24:32.974Z,12.90
2018-10-19T02:27:00.761Z,12.90
2018-10-19T02:29:28.404Z,12.90
2018-10-19T02:31:56.138Z,12.80
2018-10-19T02:34:23.812Z,12.90
2018-10-19T02:36:51.514Z,12.50
2018-10-19T02:39:19.299Z,12.90
2018-10-19T02:41:46.925Z,12.70
2018-10-19T02:44:14.612Z,12.90
2018-10-19T02:46:42.357Z,12.40
2018-10-19T02:49:10.057Z,12.30
2018-10-19T02:51:38.032Z,12.90
2018-10-19T02:54:06.631Z,12.80
2018-10-19T02:56:34.380Z,12.40
2018-10-19T02:59:02.316Z,12.60
2018-10-19T03:01:29.945Z,12.70
2018-10-19T03:03:57.652Z,13.00
2018-10-19T03:06:25.384Z,12.80
2018-10-19T03:08:53.087Z,12.80
2018-10-19T03:11:20.847Z,12.40
2018-10-19T03:13:48.529Z,12.40
2018-10-19T03:16:16.203Z,12.50
2018-10-19T03:18:43.900Z,12.30
2018-10-19T03:21:11.624Z,12.50
2018-10-19T03:23:39.389Z,12.40
2018-10-19T03:26:07.881Z,12.70
2018-10-19T03:28:35.581Z,12.30
2018-10-19T03:31:03.835Z,12.50
2018-10-19T03:33:31.508Z,12.40
2018-10-19T03:35:59.204Z,12.50
2018-10-19T03:38:26.917Z,12.40
2018-10-19T03:40:54.636Z,12.40
2018-10-19T03:43:22.347Z,12.50
2018-10-19T03:45:50.133Z,12.50
2018-10-19T03:48:17.855Z,12.00
2018-10-19T03:50:45.563Z,12.50
2018-10-19T03:53:13.270Z,12.00
2018-10-19T03:55:40.970Z,12.10
2018-10-19T03:58:08.681Z,12.10
2018-10-19T04:00:36.376Z,11.90
2018-10-19T04:03:04.095Z,11.80
2018-10-19T04:05:31.814Z,11.90
2018-10-19T04:07:59.530Z,11.60
2018-10-19T04:10:27.215Z,12.10
2018-10-19T04:12:54.929Z,11.80
2018-10-19T04:15:22.633Z,11.50
2018-10-19T04:17:50.369Z,11.70
2018-10-19T04:20:18.074Z,11.50
2018-10-19T04:22:45.794Z,11.50
2018-10-19T04:25:13.463Z,11.40
2018-10-19T04:27:41.262Z,11.40
2018-10-19T04:30:08.892Z,11.60
2018-10-19T04:32:36.617Z,11.30
2018-10-19T04:35:04.713Z,11.40
2018-10-19T04:37:32.385Z,11.10
2018-10-19T04:40:00.140Z,11.10
2018-10-19T04:42:27.899Z,11.30
2018-10-19T04:44:55.656Z,11.10
2018-10-19T04:47:23.341Z,11.30
2018-10-19T04:49:51.075Z,11.20
2018-10-19T04:52:18.790Z,11.30
2018-10-19T04:54:46.494Z,11.10
2018-10-19T04:57:14.240Z,11.30
2018-10-19T04:59:41.916Z,11.00
2018-10-19T05:02:09.624Z,11.00
2018-10-19T05:04:37.426Z,11.30
2018-10-19T05:07:05.052Z,11.10
2018-10-19T05:09:32.769Z,11.30
2018-10-19T05:12:00.492Z,11.10
2018-10-19T05:14:28.197Z,11.10
2018-10-19T05:16:55.936Z,10.70
2018-10-19T05:19:23.610Z,10.90
2018-10-19T05:21:51.308Z,10.70
2018-10-19T05:24:19.066Z,11.30
2018-10-19T05:26:46.792Z,11.30
2018-10-19T05:29:14.557Z,11.30
2018-10-19T05:31:42.231Z,10.70
2018-10-19T05:34:09.929Z,10.60
2018-10-19T05:36:37.654Z,10.60
2018-10-19T05:39:07.238Z,10.70
2018-10-19T05:41:34.976Z,10.80
2018-10-19T05:44:02.849Z,10.60
2018-10-19T05:46:30.548Z,10.80
2018-10-19T05:48:58.233Z,10.90
2018-10-19T05:51:25.978Z,10.90
2018-10-19T05:53:53.737Z,10.90
2018-10-19T05:56:21.443Z,10.90
2018-10-19T05:58:49.144Z,10.60
2018-10-19T06:01:16.844Z,10.70
2018-10-19T06:03:45.327Z,11.10
2018-10-19T06:06:13.026Z,10.90
2018-10-19T06:08:40.733Z,11.10
2018-10-19T06:11:08.465Z,10.90
2018-10-19T06:13:36.238Z,10.90
2018-10-19T06:16:04.247Z,11.10
2018-10-19T06:18:32.053Z,10.70
2018-10-19T06:20:59.781Z,11.00
2018-10-19T06:23:27.597Z,11.20
2018-10-19T06:25:55.353Z,11.10
2018-10-19T06:28:23.065Z,11.20
2018-10-19T06:30:50.789Z,11.00
2018-10-19T06:33:18.492Z,11.20
2018-10-19T06:35:46.186Z,11.10
2018-10-19T06:38:13.958Z,11.20
2018-10-19T06:40:41.706Z,11.10
2018-10-19T06:43:09.668Z,11.10
2018-10-19T06:45:37.361Z,11.60
2018-10-19T06:48:05.458Z,11.60
2018-10-19T06:50:33.204Z,11.70
2018-10-19T06:53:00.947Z,11.60
2018-10-19T06:55:28.617Z,11.50
2018-10-19T06:57:56.333Z,11.50
2018-10-19T07:00:24.010Z,12.00
2018-10-19T07:02:51.734Z,11.60
2018-10-19T07:05:19.421Z,11.50
2018-10-19T07:07:47.292Z,11.60
2018-10-19T07:10:14.999Z,11.50
2018-10-19T07:12:42.711Z,11.50
2018-10-19T07:15:10.814Z,11.50
2018-10-19T07:17:38.644Z,11.50
2018-10-19T07:20:07.280Z,11.80
2018-10-19T07:22:34.953Z,11.90
2018-10-19T07:25:02.822Z,11.90
2018-10-19T07:27:30.521Z,12.00
2018-10-19T07:29:58.264Z,11.70
2018-10-19T07:32:25.969Z,12.00
2018-10-19T07:34:53.988Z,11.60
2018-10-19T07:37:21.644Z,11.50
2018-10-19T07:39:49.348Z,12.00
2018-10-19T07:42:17.188Z,12.00
2018-10-19T07:44:44.773Z,12.60
2018-10-19T07:47:12.540Z,12.90
2018-10-19T07:49:40.180Z,12.90
2018-10-19T07:52:07.898Z,13.40
2018-10-19T07:54:35.722Z,13.30
2018-10-19T07:57:03.490Z,13.40
2018-10-19T07:59:31.204Z,13.20
2018-10-19T08:01:58.893Z,14.00
2018-10-19T08:04:26.603Z,15.00
2018-10-19T08:06:54.573Z,15.10
2018-10-19T08:11:56.925Z,15.10
2018-10-19T08:14:24.679Z,15.60
2018-10-19T08:16:52.443Z,15.60
2018-10-19T08:19:20.137Z,15.10
2018-10-19T08:21:47.805Z,15.70
2018-10-19T08:24:15.557Z,15.50
2018-10-19T08:26:43.286Z,15.10
2018-10-19T08:29:11.125Z,14.90
2018-10-19T08:31:38.722Z,15.40
2018-10-19T08:34:06.445Z,15.00
2018-10-19T08:36:34.120Z,16.40
2018-10-19T08:39:01.839Z,18.70
2018-10-19T08:41:29.629Z,18.40
2018-10-19T08:43:57.244Z,18.30
2018-10-19T08:46:30.628Z,18.30
2018-10-19T08:48:58.383Z,17.60
2018-10-19T08:51:26.182Z,18.70
2018-10-19T08:53:53.936Z,18.80
2018-10-19T08:56:21.657Z,19.70
2018-10-19T08:58:49.371Z,19.60
2018-10-19T09:01:17.067Z,19.70
2018-10-19T09:03:44.774Z,19.90
2018-10-19T09:06:12.491Z,20.90
2018-10-19T09:08:40.204Z,19.80
2018-10-19T09:11:07.889Z,21.50
2018-10-19T09:13:35.689Z,22.60
2018-10-19T09:16:03.453Z,23.00
2018-10-19T09:18:31.176Z,23.50
2018-10-19T09:20:59.002Z,21.90
2018-10-19T09:23:26.759Z,20.90
2018-10-19T09:25:54.486Z,20.50
2018-10-19T09:28:22.354Z,20.50
2018-10-19T09:30:50.095Z,20.70
2018-10-19T09:33:17.838Z,21.80
2018-10-19T09:35:45.589Z,22.40
2018-10-19T09:38:13.309Z,20.80
2018-10-19T09:40:41.075Z,21.70
2018-10-19T09:43:08.820Z,23.00
2018-10-19T09:45:36.538Z,22.80
2018-10-19T09:48:04.529Z,20.10
2018-10-19T09:50:32.570Z,20.50
2018-10-19T09:53:00.372Z,21.10
2018-10-19T09:55:28.053Z,21.40
2018-10-19T09:57:55.775Z,21.60
2018-10-19T10:00:29.172Z,22.00
2018-10-19T10:02:56.919Z,20.80
2018-10-19T10:05:24.665Z,22.30
2018-10-19T10:07:52.412Z,22.40
2018-10-19T10:10:20.150Z,20.90
2018-10-19T10:12:47.856Z,20.70
2018-10-19T10:15:15.787Z,19.60
2018-10-19T10:17:43.361Z,19.70
2018-10-19T10:20:11.089Z,19.50
2018-10-19T10:22:38.797Z,19.30
2018-10-19T10:25:07.558Z,18.90
2018-10-19T10:27:35.248Z,18.90
2018-10-19T10:30:03.099Z,19.10
2018-10-19T10:32:30.884Z,19.60
2018-10-19T10:34:58.565Z,20.70
2018-10-19T10:37:26.281Z,20.50
2018-10-19T10:39:54.050Z,21.30
2018-10-19T10:42:21.768Z,21.10
2018-10-19T10:44:49.485Z,20.40
2018-10-19T10:47:17.211Z,20.40
2018-10-19T10:49:44.924Z,20.50
2018-10-19T10:52:12.661Z,21.40
2018-10-19T10:54:40.411Z,21.40
2018-10-19T10:57:08.479Z,23.60
2018-10-19T10:59:36.220Z,25.50
2018-10-19T11:02:04.023Z,25.80
2018-10-19T11:04:31.757Z,25.10
2018-10-19T11:06:59.582Z,23.90
2018-10-19T11:09:27.233Z,23.10
2018-10-19T11:11:54.958Z,23.50
2018-10-19T11:14:22.645Z,23.00
2018-10-19T11:16:50.353Z,22.50
2018-10-19T11:19:18.098Z,22.90
2018-10-19T11:21:46.049Z,23.20
2018-10-19T11:24:13.789Z,22.80
2018-10-19T11:26:41.549Z,21.10
2018-10-19T11:29:09.394Z,20.60
2018-10-19T11:31:37.141Z,20.60
2018-10-19T11:34:04.965Z,21.50
2018-10-19T11:36:32.671Z,22.70
2018-10-19T11:39:00.368Z,22.50
2018-10-19T11:41:28.109Z,21.90
2018-10-19T11:43:55.809Z,23.10
2018-10-19T11:46:23.605Z,24.90
2018-10-19T11:48:51.402Z,24.40
2018-10-19T11:51:19.089Z,23.70
2018-10-19T11:53:46.805Z,21.90
2018-10-19T11:56:14.533Z,22.10
2018-10-19T11:58:42.216Z,24.20
2018-10-19T12:01:10.036Z,25.60
2018-10-19T12:03:37.729Z,24.50
2018-10-19T12:06:05.854Z,24.60
2018-10-19T12:08:33.540Z,23.70
2018-10-19T12:11:01.257Z,23.50
2018-10-19T12:13:28.937Z,21.80
2018-10-19T12:15:56.674Z,22.00
2018-10-19T12:18:24.377Z,23.00
2018-10-19T12:20:52.189Z,24.20
2018-10-19T12:23:19.904Z,24.20
2018-10-19T12:25:47.688Z,24.00
2018-10-19T12:28:15.381Z,24.60
2018-10-19T12:30:43.129Z,23.90
2018-10-19T12:33:10.927Z,25.60
2018-10-19T12:35:38.641Z,25.40
2018-10-19T12:38:06.326Z,23.90
2018-10-19T12:40:34.046Z,23.70
2018-10-19T12:43:01.779Z,24.00
2018-10-19T12:46:39.763Z,23.50
2018-10-19T12:49:07.922Z,23.20
2018-10-19T12:51:36.040Z,24.30
2018-10-19T12:54:04.053Z,25.30
2018-10-19T12:56:31.708Z,24.00
2018-10-19T12:58:59.450Z,23.00
2018-10-19T13:01:28.282Z,23.30
2018-10-19T13:03:56.377Z,24.30
2018-10-19T13:06:24.075Z,24.40
2018-10-19T13:08:52.224Z,25.00
2018-10-19T13:11:19.930Z,24.40
2018-10-19T13:13:47.699Z,23.70
2018-10-19T13:16:15.509Z,24.40
2018-10-19T13:18:43.244Z,23.00
2018-10-19T13:21:11.031Z,23.80
2018-10-19T13:23:38.807Z,22.80
2018-10-19T13:26:06.538Z,23.10
2018-10-19T13:28:34.300Z,22.60
2018-10-19T13:31:02.057Z,22.90
2018-10-19T13:33:29.803Z,23.40
2018-10-19T13:35:57.532Z,23.00
2018-10-19T13:38:25.354Z,23.00
2018-10-19T13:40:53.847Z,21.90
2018-10-19T13:43:21.941Z,23.00
2018-10-19T13:45:49.960Z,23.30
2018-10-19T13:48:17.958Z,22.60
2018-10-19T13:50:45.724Z,22.30
2018-10-19T13:53:13.414Z,22.70
2018-10-19T13:55:41.162Z,22.10
2018-10-19T13:58:09.028Z,22.30
2018-10-19T14:00:36.750Z,23.00
2018-10-19T14:03:04.708Z,22.50
2018-10-19T14:05:32.549Z,22.90
2018-10-19T14:08:00.154Z,22.40
2018-10-19T14:10:27.864Z,21.10
2018-10-19T14:12:55.605Z,20.80
2018-10-19T14:15:23.350Z,20.60
2018-10-19T14:17:51.027Z,20.20
2018-10-19T14:20:18.773Z,20.60
2018-10-19T14:22:46.496Z,20.80
2018-10-19T14:25:14.265Z,21.10
2018-10-19T14:27:43.123Z,21.30
2018-10-19T14:30:13.470Z,21.10
2018-10-19T14:32:41.829Z,21.40
2018-10-19T14:35:10.395Z,21.30
2018-10-19T14:37:39.096Z,21.60
2018-10-19T14:40:08.948Z,21.60
2018-10-19T14:42:37.018Z,21.30
2018-10-19T14:45:05.765Z,20.40
2018-10-19T14:47:33.599Z,20.00
2018-10-19T14:50:01.293Z,19.80
2018-10-19T14:52:29.022Z,19.70
2018-10-19T14:54:56.730Z,19.50
2018-10-19T14:57:24.462Z,19.10
2018-10-19T14:59:52.233Z,19.40
2018-10-19T15:02:20.078Z,18.90
2018-10-19T15:04:47.784Z,18.90
2018-10-19T15:07:15.544Z,19.40
2018-10-19T15:09:43.347Z,19.20
2018-10-19T15:12:11.034Z,19.80
2018-10-19T15:14:38.718Z,19.50
2018-10-19T15:17:06.729Z,19.40
2018-10-19T15:19:34.436Z,19.20
2018-10-19T15:22:02.233Z,18.70
2018-10-19T15:24:30.001Z,18.70
2018-10-19T15:26:57.784Z,18.90
2018-10-19T15:29:25.518Z,18.80
2018-10-19T15:31:53.338Z,19.00
2018-10-19T15:34:21.054Z,18.80
2018-10-19T15:36:48.757Z,18.90
2018-10-19T15:39:16.679Z,19.00
2018-10-19T15:41:44.385Z,19.00
2018-10-19T15:44:12.172Z,18.80
2018-10-19T15:46:39.988Z,18.40
2018-10-19T15:49:07.652Z,18.30
2018-10-19T15:51:35.369Z,18.20
2018-10-19T15:54:03.212Z,18.20
2018-10-19T15:56:31.241Z,17.90
2018-10-19T15:58:58.944Z,18.30
2018-10-19T16:01:26.653Z,18.10
2018-10-19T16:03:54.381Z,18.20
2018-10-19T16:06:22.117Z,18.30
2018-10-19T16:08:49.817Z,17.50
2018-10-19T16:11:17.547Z,17.80
2018-10-19T16:13:45.266Z,17.70
2018-10-19T16:16:12.982Z,17.70
2018-10-19T16:18:40.708Z,17.70
2018-10-19T16:21:08.518Z,17.60
2018-10-19T16:23:36.243Z,17.40
2018-10-19T16:26:04.081Z,17.60
2018-10-19T16:28:32.029Z,17.40
2018-10-19T16:30:59.720Z,17.60
2018-10-19T16:33:27.585Z,17.50
2018-10-19T16:35:55.332Z,17.30
2018-10-19T16:38:23.202Z,17.40
2018-10-19T16:40:51.003Z,17.20
2018-10-19T16:43:18.738Z,17.20
2018-10-19T16:45:46.456Z,17.20
2018-10-19T16:48:14.323Z,17.20
2018-10-19T16:50:42.000Z,17.50
2018-10-19T16:53:09.785Z,17.40
2018-10-19T16:55:37.522Z,17.20
2018-10-19T16:58:05.458Z,17.20
2018-10-19T17:00:33.118Z,17.00
2018-10-19T17:03:00.915Z,17.00
2018-10-19T17:05:28.601Z,16.90
2018-10-19T17:07:56.317Z,16.90
2018-10-19T17:10:24.032Z,17.00
2018-10-19T17:12:51.776Z,16.70
2018-10-19T17:15:19.506Z,16.80
2018-10-19T17:17:47.253Z,16.30
2018-10-19T17:20:15.049Z,16.40
2018-10-19T17:22:42.789Z,16.40
2018-10-19T17:25:11.229Z,16.50
2018-10-19T17:27:39.381Z,16.40
2018-10-19T17:30:09.909Z,16.30
2018-10-19T17:32:38.266Z,16.20
2018-10-19T17:35:06.467Z,16.20
2018-10-19T17:37:34.474Z,16.30
2018-10-19T17:40:02.508Z,16.10
2018-10-19T17:42:30.245Z,16.20
2018-10-19T17:44:57.982Z,15.60
2018-10-19T17:47:25.751Z,15.60
2018-10-19T17:49:53.518Z,15.60
2018-10-19T17:52:21.245Z,15.70
2018-10-19T17:54:48.987Z,15.60
2018-10-19T17:57:16.759Z,15.60
2018-10-19T17:59:44.463Z,15.80
2018-10-19T18:02:12.184Z,15.50
2018-10-19T18:04:39.913Z,15.60
2018-10-19T18:07:07.724Z,15.30
2018-10-19T18:09:35.508Z,16.00
2018-10-19T18:12:03.211Z,15.50
2018-10-19T18:14:30.951Z,15.50
2018-10-19T18:16:58.746Z,15.50
2018-10-19T18:19:26.430Z,15.50
2018-10-19T18:21:54.393Z,15.70
2018-10-19T18:24:22.013Z,15.50
2018-10-19T18:26:49.753Z,15.70
2018-10-19T18:29:17.441Z,15.40
2018-10-19T18:31:45.144Z,15.50
2018-10-19T18:34:12.848Z,15.60
2018-10-19T18:36:40.573Z,15.40
2018-10-19T18:39:11.116Z,15.40
2018-10-19T18:41:38.889Z,15.60
2018-10-19T18:44:07.388Z,15.50
2018-10-19T18:46:35.097Z,15.40
2018-10-19T18:49:02.836Z,16.10
2018-10-19T18:51:30.575Z,15.50
2018-10-19T18:53:58.285Z,15.90
2018-10-19T18:56:26.045Z,16.10
2018-10-19T18:58:53.777Z,16.10
2018-10-19T19:01:21.516Z,15.60
2018-10-19T19:03:49.254Z,15.90
2018-10-19T19:06:17.025Z,16.10
2018-10-19T19:08:44.718Z,16.10
2018-10-19T19:11:12.538Z,15.60
2018-10-19T19:13:46.465Z,16.00
2018-10-19T19:16:19.977Z,15.90
2018-10-19T19:18:47.942Z,15.90
2018-10-19T19:21:15.637Z,15.90
2018-10-19T19:23:48.936Z,16.00
2018-10-19T19:26:18.390Z,15.70
2018-10-19T19:28:46.141Z,15.90
2018-10-19T19:31:14.166Z,15.80
2018-10-19T19:33:47.739Z,15.50
2018-10-19T19:36:15.453Z,15.70
2018-10-19T19:38:43.361Z,16.00
2018-10-19T19:41:16.799Z,15.40
2018-10-19T19:43:44.476Z,15.40
2018-10-19T19:46:12.181Z,16.00
2018-10-19T19:48:45.582Z,15.70
2018-10-19T19:51:13.344Z,15.50
2018-10-19T19:53:41.147Z,15.50
2018-10-19T19:56:08.916Z,15.60
2018-10-19T19:58:36.847Z,15.40
2018-10-19T20:01:04.973Z,15.50
2018-10-19T20:03:32.718Z,15.40
2018-10-19T20:06:00.433Z,15.50
2018-10-19T20:08:28.174Z,15.60
2018-10-19T20:10:55.902Z,15.50
2018-10-19T20:13:23.706Z,15.40
2018-10-19T20:15:51.421Z,15.40
2018-10-19T20:18:19.186Z,15.40
2018-10-19T20:20:46.915Z,15.40
2018-10-19T20:23:14.773Z,15.40
2018-10-19T20:25:42.418Z,15.50
2018-10-19T20:28:10.189Z,15.40
2018-10-19T20:30:37.908Z,15.40
2018-10-19T20:33:05.665Z,15.50
2018-10-19T20:35:33.402Z,15.30
2018-10-19T20:38:01.261Z,15.40
2018-10-19T20:40:28.961Z,14.90
2018-10-19T20:42:56.677Z,15.10
2018-10-19T20:45:24.408Z,15.00
2018-10-19T20:47:52.121Z,15.30
2018-10-19T20:50:19.865Z,15.30
2018-10-19T20:52:47.589Z,14.90
2018-10-19T20:55:15.322Z,15.00
2018-10-19T20:57:43.066Z,14.90
2018-10-19T21:00:10.832Z,14.80
2018-10-19T21:02:38.581Z,14.90
2018-10-19T21:05:07.646Z,14.90
2018-10-19T21:07:35.495Z,14.90
2018-10-19T21:10:05.485Z,14.90
2018-10-19T21:12:33.224Z,14.60
2018-10-19T21:15:00.939Z,15.00
2018-10-19T21:17:28.663Z,14.40
2018-10-19T21:19:56.411Z,14.50
2018-10-19T21:22:24.124Z,14.90
2018-10-19T21:24:51.844Z,14.40
2018-10-19T21:27:19.614Z,14.40
2018-10-19T21:29:47.341Z,14.50
2018-10-19T21:32:15.091Z,14.40
2018-10-19T21:34:42.800Z,13.30
2018-10-19T21:37:10.560Z,13.80
2018-10-19T21:39:38.262Z,14.00
2018-10-19T21:42:06.003Z,13.90
2018-10-19T21:44:33.762Z,14.00
2018-10-19T21:47:01.496Z,13.80
2018-10-19T21:49:29.265Z,13.80
2018-10-19T21:51:56.985Z,13.90
2018-10-19T21:54:24.782Z,13.90
2018-10-19T21:56:52.476Z,13.60
2018-10-19T21:59:20.185Z,13.40
2018-10-19T22:01:47.900Z,13.40
2018-10-19T22:04:15.613Z,13.50
2018-10-19T22:06:43.338Z,13.40
2018-10-19T22:09:12.274Z,13.40
2018-10-19T22:11:40.613Z,13.40
2018-10-19T22:14:09.326Z,13.40
2018-10-19T22:16:37.272Z,13.40
2018-10-19T22:19:05.476Z,12.90
2018-10-19T22:21:33.240Z,13.00
2018-10-19T22:24:01.040Z,13.00
2018-10-19T22:26:28.775Z,13.30
2018-10-19T22:28:56.546Z,13.10
2018-10-19T22:31:24.251Z,12.90
2018-10-19T22:33:52.037Z,12.80
2018-10-19T22:36:19.775Z,12.80
2018-10-19T22:38:47.512Z,12.90
2018-10-19T22:41:15.328Z,12.70
2018-10-19T22:43:43.018Z,12.90
2018-10-19T22:46:10.740Z,12.50
2018-10-19T22:48:38.437Z,12.80
2018-10-19T22:51:06.184Z,13.10
2018-10-19T22:53:33.890Z,12.70
2018-10-19T22:56:01.626Z,12.40
2018-10-19T22:58:29.376Z,12.60
2018-10-19T23:00:57.150Z,12.40
2018-10-19T23:03:24.884Z,12.70
2018-10-19T23:05:52.621Z,12.50
2018-10-19T23:08:20.341Z,12.50
2018-10-19T23:10:48.049Z,12.50
2018-10-19T23:13:15.863Z,12.40
2018-10-19T23:15:43.569Z,12.00
2018-10-19T23:18:11.307Z,12.00
2018-10-19T23:20:39.053Z,12.10
2018-10-19T23:23:06.828Z,12.10
2018-10-19T23:25:34.528Z,12.10
2018-10-19T23:28:05.268Z,12.10
2018-10-19T23:30:33.009Z,12.10
2018-10-19T23:33:00.761Z,11.50
2018-10-19T23:35:28.465Z,12.10
2018-10-19T23:37:56.169Z,12.20
2018-10-19T23:40:23.892Z,12.10
2018-10-19T23:42:51.644Z,12.00
2018-10-19T23:45:19.446Z,11.50
2018-10-19T23:47:47.154Z,11.50
2018-10-19T23:50:14.884Z,11.60
2018-10-19T23:52:42.624Z,11.60
2018-10-19T23:55:10.456Z,11.50
2018-10-19T23:57:38.166Z,11.70
